createdAt,value
2023-10-12T00:02:15.967Z,1.00
2023-10-12T00:04:44.086Z,1.00
2023-10-12T00:07:15.747Z,1.00
2023-10-12T00:09:48.513Z,1.00
2023-10-12T00:12:15.608Z,1.00
2023-10-12T00:14:42.353Z,1.00
2023-10-12T00:17:09.148Z,1.00
2023-10-12T00:19:38.617Z,1.00
2023-10-12T00:22:12.179Z,1.00
2023-10-12T00:24:39.580Z,1.00
2023-10-12T00:27:09.722Z,1.00
2023-10-12T00:29:39.609Z,1.00
2023-10-12T00:32:07.335Z,1.00
2023-10-12T00:34:35.622Z,1.00
2023-10-12T00:37:03.627Z,1.00
2023-10-12T00:39:44.980Z,1.00
2023-10-12T00:42:17.633Z,1.00
2023-10-12T00:44:47.407Z,3.40
2023-10-12T00:47:20.380Z,11.00
2023-10-12T00:49:49.559Z,21.70
2023-10-12T00:52:27.550Z,32.10
2023-10-12T00:55:13.721Z,30.30
2023-10-12T00:57:42.793Z,26.90
2023-10-12T01:00:15.986Z,24.40
2023-10-12T01:02:43.416Z,23.90
2023-10-12T01:05:11.578Z,21.60
2023-10-12T01:07:38.789Z,19.60
2023-10-12T01:10:07.331Z,16.30
2023-10-12T01:12:34.815Z,12.50
2023-10-12T01:15:11.425Z,9.20
2023-10-12T01:17:40.758Z,8.60
2023-10-12T01:20:16.662Z,7.90
2023-10-12T01:22:44.614Z,9.20
2023-10-12T01:25:19.994Z,14.50
2023-10-12T01:27:47.357Z,25.50
2023-10-12T01:30:19.359Z,31.40
2023-10-12T01:32:52.259Z,39.70
2023-10-12T01:35:26.199Z,52.80
2023-10-12T01:38:00.695Z,65.10
2023-10-12T01:40:28.982Z,74.40
2023-10-12T01:42:57.126Z,81.70
2023-10-12T01:45:41.163Z,83.80
2023-10-12T01:48:11.981Z,90.00
2023-10-12T01:50:39.401Z,85.00
2023-10-12T01:53:21.955Z,66.10
2023-10-12T01:55:48.859Z,50.10
2023-10-12T01:58:15.812Z,33.60
2023-10-12T02:00:43.196Z,22.10
2023-10-12T02:03:18.620Z,16.20
2023-10-12T02:05:51.296Z,5.60
2023-10-12T02:08:20.838Z,1.00
2023-10-12T02:10:56.156Z,1.00
2023-10-12T02:13:22.938Z,1.00
2023-10-12T02:15:51.012Z,1.00
2023-10-12T02:18:18.666Z,1.00
2023-10-12T02:21:07.296Z,1.00
2023-10-12T02:23:39.199Z,1.00
2023-10-12T02:26:31.864Z,1.00
2023-10-12T02:29:12.257Z,1.00
2023-10-12T02:31:50.172Z,1.00
2023-10-12T02:34:26.288Z,1.00
2023-10-12T02:37:17.026Z,1.00
2023-10-12T02:39:47.099Z,1.00
2023-10-12T02:42:22.119Z,1.00
2023-10-12T02:45:08.621Z,1.00
2023-10-12T02:47:42.428Z,1.00
2023-10-12T02:50:27.861Z,1.00
2023-10-12T02:52:54.802Z,1.00
2023-10-12T02:55:35.033Z,1.00
2023-10-12T02:58:07.411Z,1.00
2023-10-12T03:00:35.737Z,1.00
2023-10-12T03:03:12.685Z,1.00
2023-10-12T03:05:47.189Z,1.00
2023-10-12T03:08:15.029Z,1.00
2023-10-12T03:11:00.979Z,1.00
2023-10-12T03:13:34.625Z,1.00
2023-10-12T03:16:09.716Z,1.00
2023-10-12T03:18:36.789Z,1.00
2023-10-12T03:21:05.304Z,1.00
2023-10-12T03:23:34.161Z,1.00
2023-10-12T03:26:06.358Z,1.00
2023-10-12T03:28:44.595Z,1.00
2023-10-12T03:31:23.371Z,1.00
2023-10-12T03:33:55.784Z,1.00
2023-10-12T03:36:24.157Z,1.00
2023-10-12T03:39:19.163Z,1.00
2023-10-12T03:41:47.315Z,1.00
2023-10-12T03:44:20.356Z,1.00
2023-10-12T03:46:57.707Z,1.00
2023-10-12T03:49:32.458Z,1.00
2023-10-12T03:52:00.814Z,1.00
2023-10-12T03:54:29.449Z,1.00
2023-10-12T03:57:07.465Z,1.00
2023-10-12T03:59:44.640Z,1.00
2023-10-12T04:02:15.176Z,1.00
2023-10-12T04:04:52.617Z,1.00
2023-10-12T04:07:20.364Z,1.00
2023-10-12T04:09:52.140Z,1.00
2023-10-12T04:12:32.625Z,1.00
2023-10-12T04:15:05.919Z,1.00
2023-10-12T04:17:42.581Z,1.00
2023-10-12T04:20:20.407Z,1.00
2023-10-12T04:23:34.625Z,1.00
2023-10-12T04:26:10.269Z,1.00
2023-10-12T04:28:37.702Z,1.00
2023-10-12T04:31:34.232Z,1.00
2023-10-12T04:34:06.964Z,1.00
2023-10-12T04:36:45.037Z,1.00
2023-10-12T04:39:17.238Z,1.00
2023-10-12T04:41:56.557Z,1.00
2023-10-12T04:44:40.321Z,1.00
2023-10-12T04:47:12.547Z,1.00
2023-10-12T04:49:57.664Z,1.00
2023-10-12T04:52:34.380Z,1.00
2023-10-12T04:55:20.996Z,1.00
2023-10-12T04:57:50.294Z,1.00
2023-10-12T05:00:24.564Z,1.00
2023-10-12T05:02:57.552Z,1.00
2023-10-12T05:05:43.460Z,1.00
2023-10-12T05:08:10.215Z,1.00
2023-10-12T05:10:46.966Z,1.00
2023-10-12T05:13:22.586Z,1.00
2023-10-12T05:15:55.600Z,1.00
2023-10-12T05:18:24.232Z,1.00
2023-10-12T05:20:52.097Z,1.00
2023-10-12T05:23:23.102Z,1.00
2023-10-12T05:26:08.223Z,1.00
2023-10-12T05:28:38.089Z,1.00
2023-10-12T05:31:13.690Z,1.00
2023-10-12T05:34:02.007Z,1.00
2023-10-12T05:36:31.582Z,1.00
2023-10-12T05:39:13.680Z,1.00
2023-10-12T05:41:41.444Z,1.00
2023-10-12T05:44:16.028Z,1.00
2023-10-12T05:46:51.331Z,3.90
2023-10-12T05:49:23.454Z,9.90
2023-10-12T05:51:50.173Z,12.30
2023-10-12T05:54:21.149Z,14.90
2023-10-12T05:56:49.981Z,16.30
2023-10-12T05:59:18.557Z,17.90
2023-10-12T06:01:46.720Z,20.90
2023-10-12T06:04:15.723Z,21.80
2023-10-12T06:06:43.631Z,22.80
2023-10-12T06:09:12.820Z,21.90
2023-10-12T06:11:44.259Z,24.20
2023-10-12T06:14:14.563Z,27.40
2023-10-12T06:16:41.898Z,24.80
2023-10-12T06:19:22.482Z,25.30
2023-10-12T06:21:59.277Z,25.60
2023-10-12T06:24:33.776Z,27.40
2023-10-12T06:27:09.875Z,35.70
2023-10-12T06:29:37.269Z,32.00
2023-10-12T06:32:10.884Z,33.50
2023-10-12T06:34:38.510Z,43.10
2023-10-12T06:37:25.294Z,47.20
2023-10-12T06:40:37.537Z,49.40
2023-10-12T06:43:23.000Z,48.90
2023-10-12T06:45:51.805Z,49.30
2023-10-12T06:48:24.359Z,48.80
2023-10-12T06:51:02.423Z,46.20
2023-10-12T06:53:34.312Z,41.00
2023-10-12T06:56:16.491Z,44.20
2023-10-12T06:58:43.710Z,48.20
2023-10-12T07:01:19.169Z,55.30
2023-10-12T07:03:48.657Z,56.00
2023-10-12T07:06:16.516Z,58.40
2023-10-12T07:08:47.006Z,64.50
2023-10-12T07:11:14.805Z,64.30
2023-10-12T07:13:41.878Z,73.10
2023-10-12T07:16:08.780Z,89.10
2023-10-12T07:18:35.786Z,96.30
2023-10-12T07:21:06.727Z,95.20
2023-10-12T07:23:36.211Z,99.90
2023-10-12T07:26:10.541Z,94.50
2023-10-12T07:28:40.229Z,99.90
2023-10-12T07:31:31.449Z,99.90
2023-10-12T07:34:01.828Z,99.90
2023-10-12T07:36:53.407Z,99.90
2023-10-12T07:39:21.473Z,99.90
2023-10-12T07:41:56.649Z,99.90
2023-10-12T07:44:24.729Z,99.90
2023-10-12T07:46:56.851Z,99.90
2023-10-12T07:49:37.508Z,99.90
2023-10-12T07:52:22.510Z,99.90
2023-10-12T07:54:57.933Z,99.90
2023-10-12T07:57:30.021Z,99.90
2023-10-12T08:00:16.429Z,99.90
2023-10-12T08:03:01.546Z,99.90
2023-10-12T08:05:42.840Z,99.90
2023-10-12T08:08:18.178Z,99.90
2023-10-12T08:10:59.231Z,99.90
2023-10-12T08:13:27.317Z,99.90
2023-10-12T08:15:59.662Z,99.90
2023-10-12T08:18:46.926Z,99.90
2023-10-12T08:21:24.242Z,99.90
2023-10-12T08:23:57.554Z,99.90
2023-10-12T08:26:35.952Z,99.90
2023-10-12T08:29:09.582Z,99.90
2023-10-12T08:31:44.210Z,99.90
2023-10-12T08:34:34.778Z,99.90
2023-10-12T08:37:18.323Z,99.90
2023-10-12T08:39:50.804Z,99.90
2023-10-12T08:42:39.928Z,99.90
2023-10-12T08:45:09.453Z,99.90
2023-10-12T08:47:45.226Z,99.90
2023-10-12T08:50:26.847Z,99.90
2023-10-12T08:52:59.972Z,99.90
2023-10-12T08:55:32.040Z,99.90
2023-10-12T08:58:16.046Z,99.90
2023-10-12T09:00:45.564Z,99.90
2023-10-12T09:03:29.960Z,99.90
2023-10-12T09:06:08.190Z,99.90
2023-10-12T09:08:41.859Z,99.90
2023-10-12T09:11:26.419Z,99.90
2023-10-12T09:13:57.903Z,99.90
2023-10-12T09:16:45.270Z,99.90
2023-10-12T09:19:30.559Z,99.90
2023-10-12T09:24:55.225Z,99.90
2023-10-12T09:27:28.775Z,99.90
2023-10-12T09:29:57.894Z,99.90
2023-10-12T09:32:26.529Z,99.90
2023-10-12T09:35:11.631Z,99.90
2023-10-12T09:37:44.650Z,99.90
2023-10-12T09:40:25.016Z,99.90
2023-10-12T09:42:56.079Z,99.90
2023-10-12T09:45:35.462Z,99.90
2023-10-12T09:48:07.380Z,99.90
2023-10-12T09:50:36.106Z,99.90
2023-10-12T09:53:13.232Z,99.90
2023-10-12T09:55:46.023Z,99.90
2023-10-12T09:58:15.501Z,99.90
2023-10-12T10:00:57.381Z,99.90
2023-10-12T10:03:39.253Z,99.90
2023-10-12T10:06:29.034Z,99.90
2023-10-12T10:09:10.692Z,99.90
2023-10-12T10:11:38.758Z,99.90
2023-10-12T10:14:09.984Z,99.90
2023-10-12T10:16:47.268Z,99.90
2023-10-12T10:19:15.281Z,99.90
2023-10-12T10:21:50.604Z,99.90
2023-10-12T10:24:20.457Z,99.90
2023-10-12T10:26:58.509Z,99.90
2023-10-12T10:29:42.233Z,99.90
2023-10-12T10:32:14.843Z,99.90
2023-10-12T10:34:43.331Z,99.90
2023-10-12T10:37:12.217Z,99.90
2023-10-12T10:39:46.272Z,99.90
2023-10-12T10:42:19.215Z,99.90
2023-10-12T10:47:30.309Z,99.90
2023-10-12T10:50:00.754Z,99.90
2023-10-12T10:52:33.166Z,99.90
2023-10-12T10:55:00.853Z,99.90
2023-10-12T10:57:38.296Z,99.90
2023-10-12T11:00:12.263Z,99.90
2023-10-12T11:02:41.121Z,99.90
2023-10-12T11:05:18.707Z,99.90
2023-10-12T11:10:34.348Z,99.90
2023-10-12T11:13:04.527Z,99.90
2023-10-12T11:15:31.234Z,99.90
2023-10-12T11:18:08.003Z,99.90
2023-10-12T11:20:46.287Z,99.90
2023-10-12T11:23:15.288Z,99.90
2023-10-12T11:25:42.163Z,99.90
2023-10-12T11:28:19.973Z,99.90
2023-10-12T11:30:47.038Z,99.90
2023-10-12T11:33:34.442Z,99.90
2023-10-12T11:36:04.020Z,99.90
2023-10-12T11:38:31.391Z,99.90
2023-10-12T11:43:53.839Z,99.90
2023-10-12T11:46:25.948Z,99.90
2023-10-12T11:49:16.531Z,99.90
2023-10-12T11:51:51.121Z,99.90
2023-10-12T11:54:23.274Z,99.90
2023-10-12T11:56:57.951Z,99.90
2023-10-12T11:59:31.638Z,99.90
2023-10-12T12:02:07.434Z,99.90
2023-10-12T12:07:11.439Z,99.90
2023-10-12T12:09:48.868Z,99.90
2023-10-12T12:12:21.311Z,99.90
2023-10-12T12:14:49.169Z,99.90
2023-10-12T12:17:20.292Z,99.90
2023-10-12T12:20:27.023Z,99.90
2023-10-12T12:23:04.577Z,99.90
2023-10-12T12:25:34.404Z,99.90
2023-10-12T12:28:14.666Z,99.90
2023-10-12T12:30:59.041Z,91.90
2023-10-12T12:33:26.981Z,96.00
2023-10-12T12:38:54.086Z,92.30
2023-10-12T12:41:28.944Z,78.20
2023-10-12T12:43:59.314Z,78.80
2023-10-12T12:46:26.431Z,83.10
2023-10-12T12:49:01.610Z,76.50
2023-10-12T12:51:31.587Z,76.70
2023-10-12T12:53:59.348Z,71.60
2023-10-12T12:56:26.319Z,73.20
2023-10-12T12:58:54.983Z,99.90
2023-10-12T13:04:03.938Z,99.90
2023-10-12T13:06:33.955Z,99.90
2023-10-12T13:09:06.401Z,99.90
2023-10-12T13:11:35.468Z,99.90
2023-10-12T13:14:03.479Z,99.90
2023-10-12T13:16:54.101Z,99.90
2023-10-12T13:19:27.709Z,99.90
2023-10-12T13:22:04.467Z,99.90
2023-10-12T13:24:35.953Z,99.90
2023-10-12T13:27:11.677Z,99.90
2023-10-12T13:29:58.070Z,99.90
2023-10-12T13:32:27.099Z,99.90
2023-10-12T13:34:58.432Z,99.90
2023-10-12T13:40:15.715Z,99.90
2023-10-12T13:42:46.011Z,99.90
2023-10-12T13:45:19.143Z,99.90
2023-10-12T13:47:47.342Z,99.90
2023-10-12T13:50:15.039Z,99.90
2023-10-12T13:52:59.818Z,99.90
2023-10-12T13:55:27.255Z,99.90
2023-10-12T13:57:58.057Z,99.90
2023-10-12T14:00:29.785Z,99.90
2023-10-12T14:03:11.108Z,99.90
2023-10-12T14:05:44.532Z,99.90
2023-10-12T14:08:12.701Z,99.90
2023-10-12T14:10:52.148Z,99.90
2023-10-12T14:13:23.810Z,99.90
2023-10-12T14:15:51.839Z,99.90
2023-10-12T14:18:22.567Z,99.90
2023-10-12T14:20:55.826Z,99.90
2023-10-12T14:23:26.938Z,99.90
2023-10-12T14:25:57.607Z,99.90
2023-10-12T14:28:31.814Z,99.90
2023-10-12T14:33:53.384Z,99.90
2023-10-12T14:36:20.531Z,99.90
2023-10-12T14:38:55.142Z,99.90
2023-10-12T14:41:31.370Z,99.90
2023-10-12T14:44:00.163Z,99.90
2023-10-12T14:46:33.040Z,99.90
2023-10-12T14:49:10.431Z,99.90
2023-10-12T14:51:38.422Z,99.90
2023-10-12T14:54:13.360Z,99.90
2023-10-12T14:56:43.592Z,99.90
2023-10-12T14:59:23.930Z,99.90
2023-10-12T15:02:03.585Z,99.90
2023-10-12T15:04:33.163Z,99.90
2023-10-12T15:09:58.264Z,99.90
2023-10-12T15:12:29.137Z,99.90
2023-10-12T15:14:56.419Z,99.90
2023-10-12T15:17:23.103Z,99.90
2023-10-12T15:19:49.767Z,99.90
2023-10-12T15:22:19.468Z,99.90
2023-10-12T15:24:50.627Z,99.90
2023-10-12T15:27:22.620Z,99.90
2023-10-12T15:29:54.182Z,99.90
2023-10-12T15:32:24.565Z,99.90
2023-10-12T15:34:57.253Z,99.90
2023-10-12T15:37:25.264Z,99.90
2023-10-12T15:40:03.445Z,99.90
2023-10-12T15:42:55.673Z,99.90
2023-10-12T15:45:24.714Z,99.90
2023-10-12T15:48:05.143Z,99.90
2023-10-12T15:50:32.209Z,99.90
2023-10-12T15:53:07.336Z,99.90
2023-10-12T15:55:35.511Z,99.90
2023-10-12T15:58:12.078Z,99.90
2023-10-12T16:00:41.464Z,99.90
2023-10-12T16:03:08.738Z,99.90
2023-10-12T16:05:36.851Z,99.90
2023-10-12T16:08:12.504Z,99.90
2023-10-12T16:10:41.910Z,99.90
2023-10-12T16:13:11.992Z,99.90
2023-10-12T16:15:39.625Z,99.90
2023-10-12T16:18:16.608Z,99.90
2023-10-12T16:20:44.795Z,99.90
2023-10-12T16:23:12.691Z,99.90
2023-10-12T16:25:41.927Z,99.90
2023-10-12T16:28:16.702Z,99.90
2023-10-12T16:30:56.998Z,99.90
2023-10-12T16:33:35.599Z,99.90
2023-10-12T16:36:06.776Z,99.90
2023-10-12T16:38:33.710Z,99.90
2023-10-12T16:41:01.348Z,99.90
2023-10-12T16:43:31.728Z,99.90
2023-10-12T16:45:58.624Z,99.90
2023-10-12T16:48:29.098Z,99.90
2023-10-12T16:50:56.119Z,99.90
2023-10-12T16:53:23.067Z,99.90
2023-10-12T16:55:49.806Z,99.90
2023-10-12T16:58:18.198Z,99.90
2023-10-12T17:00:45.618Z,99.90
2023-10-12T17:03:12.446Z,99.90
2023-10-12T17:05:39.233Z,99.90
2023-10-12T17:08:07.328Z,99.90
2023-10-12T17:10:35.011Z,99.90
2023-10-12T17:13:02.030Z,99.90
2023-10-12T17:15:28.926Z,99.90
2023-10-12T17:17:57.304Z,99.90
2023-10-12T17:20:24.451Z,99.90
2023-10-12T17:22:52.403Z,99.90
2023-10-12T17:25:19.416Z,99.90
2023-10-12T17:27:46.546Z,99.90
2023-10-12T17:30:13.743Z,99.90
2023-10-12T17:32:41.215Z,99.90
2023-10-12T17:35:12.524Z,99.90
2023-10-12T17:37:39.997Z,99.90
2023-10-12T17:40:08.503Z,99.90
2023-10-12T17:42:35.294Z,99.90
2023-10-12T17:45:09.506Z,99.90
2023-10-12T17:47:38.811Z,99.90
2023-10-12T17:50:13.050Z,99.90
2023-10-12T17:52:41.902Z,99.90
2023-10-12T17:55:09.834Z,99.90
2023-10-12T17:57:37.149Z,99.90
2023-10-12T18:00:08.909Z,99.90
2023-10-12T18:02:38.575Z,99.90
2023-10-12T18:05:09.370Z,99.90
2023-10-12T18:07:37.267Z,99.90
2023-10-12T18:10:05.789Z,99.90
2023-10-12T18:12:33.779Z,99.90
2023-10-12T18:15:01.703Z,99.90
2023-10-12T18:17:28.561Z,99.90
2023-10-12T18:19:55.361Z,99.90
2023-10-12T18:22:22.205Z,99.90
2023-10-12T18:24:53.875Z,99.90
2023-10-12T18:27:26.242Z,99.90
2023-10-12T18:29:52.966Z,99.90
2023-10-12T18:32:23.455Z,99.90
2023-10-12T18:34:55.542Z,99.90
2023-10-12T18:37:22.279Z,99.90
2023-10-12T18:39:49.003Z,99.90
2023-10-12T18:42:15.819Z,99.90
2023-10-12T18:44:45.292Z,99.90
2023-10-12T18:47:17.036Z,99.90
2023-10-12T18:49:59.341Z,99.90
2023-10-12T18:52:34.216Z,99.90
2023-10-12T18:55:01.001Z,99.90
2023-10-12T18:57:27.748Z,99.90
2023-10-12T18:59:55.275Z,99.90
2023-10-12T19:02:22.145Z,99.90
2023-10-12T19:04:50.313Z,99.90
2023-10-12T19:07:17.595Z,99.90
2023-10-12T19:09:44.311Z,99.90
2023-10-12T19:12:11.048Z,99.90
2023-10-12T19:14:37.742Z,99.90
2023-10-12T19:17:05.463Z,99.90
2023-10-12T19:19:32.283Z,99.90
2023-10-12T19:21:59.090Z,99.90
2023-10-12T19:24:28.928Z,99.90
2023-10-12T19:26:59.103Z,99.90
2023-10-12T19:29:32.462Z,99.90
2023-10-12T19:31:59.284Z,99.90
2023-10-12T19:34:29.851Z,99.90
2023-10-12T19:36:57.264Z,99.90
2023-10-12T19:39:23.994Z,99.90
2023-10-12T19:41:52.217Z,99.90
2023-10-12T19:44:20.507Z,99.90
2023-10-12T19:46:47.317Z,99.90
2023-10-12T19:49:14.157Z,99.90
2023-10-12T19:51:41.541Z,99.90
2023-10-12T19:54:33.363Z,99.90
2023-10-12T19:57:07.081Z,99.90
2023-10-12T19:59:39.785Z,99.90
2023-10-12T20:02:26.826Z,99.90
2023-10-12T20:05:02.199Z,99.90
2023-10-12T20:07:29.667Z,99.90
2023-10-12T20:09:56.488Z,99.90
2023-10-12T20:12:26.840Z,99.90
2023-10-12T20:14:53.981Z,99.90
2023-10-12T20:17:20.884Z,99.90
2023-10-12T20:19:49.099Z,99.90
2023-10-12T20:22:15.848Z,99.90
2023-10-12T20:24:43.427Z,99.90
2023-10-12T20:27:10.219Z,99.90
2023-10-12T20:29:39.844Z,99.90
2023-10-12T20:32:06.555Z,99.90
2023-10-12T20:34:35.235Z,99.90
2023-10-12T20:37:02.246Z,99.90
2023-10-12T20:39:29.002Z,99.90
2023-10-12T20:41:56.345Z,99.90
2023-10-12T20:44:23.092Z,99.90
2023-10-12T20:46:49.906Z,99.90
2023-10-12T20:49:21.082Z,99.90
2023-10-12T20:51:49.887Z,99.90
2023-10-12T20:54:16.839Z,99.90
2023-10-12T20:56:43.582Z,99.90
2023-10-12T20:59:17.277Z,99.90
2023-10-12T21:01:48.377Z,99.90
2023-10-12T21:04:18.427Z,99.90
2023-10-12T21:06:45.534Z,99.90
2023-10-12T21:09:15.224Z,99.90
2023-10-12T21:11:46.364Z,99.90
2023-10-12T21:14:21.083Z,99.90
2023-10-12T21:16:50.234Z,99.90
2023-10-12T21:19:19.528Z,99.90
2023-10-12T21:21:50.474Z,99.90
2023-10-12T21:24:22.832Z,99.90
2023-10-12T21:26:50.963Z,99.90
2023-10-12T21:29:22.400Z,99.90
2023-10-12T21:31:51.123Z,99.90
2023-10-12T21:34:25.026Z,99.90
2023-10-12T21:36:52.522Z,99.90
2023-10-12T21:39:35.769Z,99.90
2023-10-12T21:42:03.469Z,99.90
2023-10-12T21:44:30.942Z,99.90
2023-10-12T21:47:03.021Z,99.90
2023-10-12T21:49:44.083Z,99.90
2023-10-12T21:52:10.879Z,99.90
2023-10-12T21:54:38.085Z,99.90
2023-10-12T21:57:09.517Z,99.90
2023-10-12T21:59:37.693Z,99.90
2023-10-12T22:04:35.374Z,99.90
2023-10-12T22:07:06.659Z,99.90
2023-10-12T22:09:35.796Z,99.90
2023-10-12T22:12:03.400Z,99.90
2023-10-12T22:14:47.660Z,99.90
2023-10-12T22:17:18.086Z,99.90
2023-10-12T22:19:45.687Z,99.90
2023-10-12T22:22:12.709Z,99.90
2023-10-12T22:24:39.504Z,99.90
2023-10-12T22:27:06.197Z,99.90
2023-10-12T22:29:33.025Z,99.90
2023-10-12T22:32:00.073Z,99.90
2023-10-12T22:34:27.767Z,99.90
2023-10-12T22:36:54.535Z,99.90
2023-10-12T22:39:30.532Z,99.90
2023-10-12T22:41:58.044Z,99.90
2023-10-12T22:44:24.928Z,99.90
2023-10-12T22:46:51.694Z,99.90
2023-10-12T22:49:19.406Z,99.90
2023-10-12T22:51:47.920Z,99.90
2023-10-12T22:54:17.196Z,99.90
2023-10-12T22:56:44.454Z,99.90
2023-10-12T22:59:11.525Z,99.90
2023-10-12T23:01:39.678Z,99.90
2023-10-12T23:04:06.672Z,99.90
2023-10-12T23:06:34.456Z,99.90
2023-10-12T23:09:03.301Z,99.90
2023-10-12T23:11:34.547Z,99.90
2023-10-12T23:14:01.817Z,99.90
2023-10-12T23:16:30.803Z,99.90
2023-10-12T23:18:57.789Z,99.90
2023-10-12T23:21:30.210Z,99.90
2023-10-12T23:23:58.464Z,99.90
2023-10-12T23:26:30.511Z,99.90
2023-10-12T23:28:58.019Z,99.90
2023-10-12T23:31:27.343Z,99.90
2023-10-12T23:33:56.222Z,99.90
2023-10-12T23:36:25.930Z,99.90
2023-10-12T23:39:01.669Z,99.90
2023-10-12T23:41:33.030Z,99.90
2023-10-12T23:44:02.399Z,99.90
2023-10-12T23:46:34.171Z,99.90
2023-10-12T23:49:21.036Z,99.90
2023-10-12T23:51:48.167Z,99.90
2023-10-12T23:54:26.217Z,99.90
2023-10-12T23:56:58.679Z,99.90
2023-10-12T23:59:28.464Z,99.90
